Time;durP1;ratioP1;P1;durP2;ratioP2;P2;SDS_P1;SDS_P2;PMS_P1;PMS_P2;Temp;Humidity;BMP_temperature;BMP_pressure;BME280_temperature;BME280_humidity;BME280_pressure;Samples;Min_cycle;Max_cycle;Signal;HPM_P1;HPM_P2
2022/06/20 00:02:01;;;;;;;6.20;1.80;;;;;;;14.57;100.00;101446.47;5034291;28;20021;-72
2022/06/20 00:04:27;;;;;;;11.63;2.10;;;;;;;14.43;100.00;101451.63;5032121;28;20477;-72
2022/06/20 00:06:52;;;;;;;8.48;1.75;;;;;;;14.36;100.00;101463.00;5033692;28;20057;-72
2022/06/20 00:09:17;;;;;;;12.10;2.13;;;;;;;14.26;100.00;101461.16;5031948;28;20120;-71
2022/06/20 00:11:49;;;;;;;10.18;2.38;;;;;;;14.47;100.00;101450.78;5034537;28;20203;-71
2022/06/20 00:14:17;;;;;;;6.38;2.10;;;;;;;14.34;100.00;101456.81;5032200;28;20025;-70
2022/06/20 00:16:43;;;;;;;7.68;1.95;;;;;;;14.28;100.00;101451.44;5033357;28;20033;-70
2022/06/20 00:19:11;;;;;;;11.30;1.92;;;;;;;14.26;100.00;101455.84;5033066;28;20031;-70
2022/06/20 00:21:38;;;;;;;11.38;2.10;;;;;;;14.40;100.00;101462.16;5032568;28;20109;-72
2022/06/20 00:24:04;;;;;;;7.35;2.13;;;;;;;14.34;100.00;101476.22;5031648;28;20030;-70
2022/06/20 00:26:29;;;;;;;10.07;2.10;;;;;;;14.25;100.00;101477.88;5028806;28;20515;-71
2022/06/20 00:28:56;;;;;;;9.50;2.47;;;;;;;14.20;100.00;101471.66;5029355;28;20021;-71
2022/06/20 00:31:22;;;;;;;15.00;2.83;;;;;;;14.16;100.00;101476.91;5030677;28;20528;-71
2022/06/20 00:33:47;;;;;;;9.07;2.53;;;;;;;14.07;100.00;101482.09;5030960;28;20025;-71
2022/06/20 00:36:12;;;;;;;13.45;3.78;;;;;;;14.09;100.00;101493.56;5031694;28;20534;-71
2022/06/20 00:38:38;;;;;;;9.60;2.70;;;;;;;14.05;100.00;101494.41;5029991;28;20100;-71
2022/06/20 00:41:11;;;;;;;7.47;2.45;;;;;;;14.16;100.00;101490.16;5031021;28;20036;-71
2022/06/20 00:43:42;;;;;;;19.38;2.58;;;;;;;14.14;100.00;101483.06;5031399;28;20507;-71
2022/06/20 00:46:34;;;;;;;6.57;2.30;;;;;;;14.06;100.00;101484.72;5030741;28;20477;-71
2022/06/20 00:49:17;;;;;;;16.30;2.47;;;;;;;13.98;100.00;101476.69;5031325;28;20368;-72
2022/06/20 00:51:56;;;;;;;7.15;2.42;;;;;;;13.95;100.00;101472.22;5029063;28;20037;-72
2022/06/20 00:54:37;;;;;;;10.50;2.70;;;;;;;13.95;100.00;101477.53;5032265;28;20053;-71
2022/06/20 00:57:27;;;;;;;11.00;3.22;;;;;;;13.95;100.00;101482.81;5030484;28;20737;-70
2022/06/20 00:59:59;;;;;;;10.45;2.63;;;;;;;13.87;100.00;101504.75;5030952;28;20052;-71
2022/06/20 01:02:27;;;;;;;12.98;2.78;;;;;;;13.92;100.00;101508.38;5031296;28;20428;-72
2022/06/20 01:05:02;;;;;;;6.28;2.47;;;;;;;13.87;100.00;101502.13;5027204;28;20112;-71
2022/06/20 01:07:35;;;;;;;13.02;2.42;;;;;;;13.89;100.00;101509.22;5027816;28;20041;-71
2022/06/20 01:10:03;;;;;;;10.48;2.78;;;;;;;13.91;100.00;101517.16;5031332;28;20040;-71
2022/06/20 01:12:33;;;;;;;12.00;2.88;;;;;;;13.94;100.00;101528.66;5023493;28;20121;-72
2022/06/20 01:14:58;;;;;;;9.07;2.30;;;;;;;13.97;100.00;101546.34;5028995;28;20396;-71
2022/06/20 01:17:35;;;;;;;12.90;2.70;;;;;;;14.11;100.00;101547.41;5030913;28;20056;-71
2022/06/20 01:20:18;;;;;;;8.70;2.30;;;;;;;14.18;100.00;101558.09;5031048;28;20032;-72
2022/06/20 01:22:56;;;;;;;8.18;2.22;;;;;;;14.25;100.00;101559.94;5030694;28;20109;-71
2022/06/20 01:25:27;;;;;;;18.05;2.92;;;;;;;14.33;100.00;101560.94;5029427;28;20060;-71
2022/06/20 01:27:53;;;;;;;7.82;2.10;;;;;;;14.36;100.00;101557.44;5032198;28;20044;-71
2022/06/20 01:30:23;;;;;;;10.95;2.40;;;;;;;14.38;100.00;101551.28;5030540;28;20033;-72
2022/06/20 01:32:49;;;;;;;10.88;1.90;;;;;;;14.41;100.00;101548.69;5030788;28;20021;-71
2022/06/20 01:38:02;;;;;;;8.25;1.83;;;;;;;14.32;100.00;101537.97;5025883;28;20052;-71
2022/06/20 01:40:29;;;;;;;9.50;2.08;;;;;;;14.33;100.00;101532.69;5031049;28;20485;-70
2022/06/20 01:42:54;;;;;;;11.43;1.77;;;;;;;14.38;100.00;101535.41;5028382;28;20475;-72
2022/06/20 01:48:21;;;;;;;9.57;2.15;;;;;;;14.35;100.00;101516.81;5023135;28;20033;-71
2022/06/20 01:50:48;;;;;;;6.15;1.67;;;;;;;14.30;100.00;101508.84;5030245;28;20038;-72
2022/06/20 01:53:28;;;;;;;9.00;1.98;;;;;;;14.35;100.00;101514.16;5030038;28;20042;-72
2022/06/20 01:55:55;;;;;;;8.30;1.85;;;;;;;14.35;100.00;101511.53;5031002;28;20071;-71
2022/06/20 01:58:24;;;;;;;6.68;1.55;;;;;;;14.38;100.00;101506.28;5029288;28;20029;-72
2022/06/20 02:00:50;;;;;;;15.43;2.55;;;;;;;14.34;100.00;101517.72;5028400;28;20033;-71
2022/06/20 02:03:18;;;;;;;9.93;1.73;;;;;;;14.37;100.00;101512.44;5031752;28;20390;-71
2022/06/20 02:05:47;;;;;;;11.60;1.55;;;;;;;14.29;100.00;101503.53;5043800;28;20033;-72
2022/06/20 02:08:16;;;;;;;9.32;2.15;;;;;;;14.22;100.00;101501.69;5031275;28;20021;-71
2022/06/20 02:10:48;;;;;;;7.75;1.83;;;;;;;14.16;100.00;101503.38;5032345;28;20037;-72
2022/06/20 02:13:16;;;;;;;7.20;2.13;;;;;;;14.14;100.00;101504.22;5031239;28;20092;-72
2022/06/20 02:15:43;;;;;;;12.88;2.05;;;;;;;14.05;100.00;101493.53;5030028;28;20049;-71
2022/06/20 02:18:08;;;;;;;10.45;1.98;;;;;;;13.97;100.00;101480.19;5030005;28;20680;-72
2022/06/20 02:20:45;;;;;;;10.98;1.98;;;;;;;13.90;100.00;101487.16;5026785;28;20025;-71
2022/06/20 02:23:16;;;;;;;11.52;1.80;;;;;;;13.85;100.00;101493.25;5032498;28;20087;-69
2022/06/20 02:25:43;;;;;;;5.57;1.80;;;;;;;13.81;100.00;101495.00;5033328;28;20084;-70
2022/06/20 02:28:16;;;;;;;5.20;1.38;;;;;;;13.76;100.00;101502.84;5033650;28;20384;-72
2022/06/20 02:30:42;;;;;;;8.10;1.70;;;;;;;13.75;100.00;101497.53;5034436;28;20558;-70
2022/06/20 02:33:22;;;;;;;11.02;2.42;;;;;;;13.73;100.00;101486.94;5035639;28;20024;-71
2022/06/20 02:35:49;;;;;;;6.90;2.03;;;;;;;13.66;100.00;101491.25;5036141;28;20087;-71
2022/06/20 02:38:14;;;;;;;11.40;1.65;;;;;;;13.65;100.00;101488.59;5033446;28;20492;-71
2022/06/20 02:40:42;;;;;;;7.38;1.30;;;;;;;13.63;100.00;101495.59;5033994;28;20029;-72
2022/06/20 02:43:34;;;;;;;10.63;2.00;;;;;;;13.51;100.00;101500.72;5033135;28;20497;-72
2022/06/20 02:46:02;;;;;;;8.50;2.05;;;;;;;13.48;100.00;101494.53;5035498;28;20032;-71
2022/06/20 02:48:30;;;;;;;7.70;1.73;;;;;;;13.47;100.00;101495.38;5033848;28;20036;-71
2022/06/20 02:51:00;;;;;;;7.65;1.90;;;;;;;13.44;100.00;101490.06;5035639;28;20025;-71
2022/06/20 02:53:34;;;;;;;8.32;1.88;;;;;;;13.38;100.00;101492.59;5035239;28;20049;-71
2022/06/20 02:56:00;;;;;;;6.63;2.05;;;;;;;13.34;100.00;101493.38;5028740;28;20508;-71
2022/06/20 02:58:28;;;;;;;8.10;1.65;;;;;;;13.30;100.00;101491.56;5034200;28;20108;-70
2022/06/20 03:00:58;;;;;;;7.55;1.65;;;;;;;13.32;100.00;101484.53;5031979;28;20041;-70
2022/06/20 03:03:34;;;;;;;6.85;1.85;;;;;;;13.29;100.00;101481.84;5032162;28;20029;-71
2022/06/20 03:06:01;;;;;;;7.22;1.80;;;;;;;13.18;100.00;101479.03;5036455;28;20108;-71
2022/06/20 03:08:27;;;;;;;14.55;2.05;;;;;;;13.15;100.00;101479.88;5032374;28;20031;-71
2022/06/20 03:10:54;;;;;;;6.63;1.50;;;;;;;13.16;100.00;101473.72;5036322;28;20112;-71
2022/06/20 03:13:21;;;;;;;5.97;1.80;;;;;;;13.16;100.00;101479.00;5029780;28;20043;-71
2022/06/20 03:15:50;;;;;;;5.68;1.63;;;;;;;13.22;100.00;101478.22;5034850;28;20057;-71
2022/06/20 03:18:18;;;;;;;5.32;1.73;;;;;;;13.19;100.00;101477.28;5034311;28;20045;-71
2022/06/20 03:20:45;;;;;;;6.20;2.35;;;;;;;13.21;100.00;101486.13;5033826;28;20025;-71
2022/06/20 03:23:17;;;;;;;10.05;1.80;;;;;;;13.18;100.00;101478.16;5031383;28;20437;-71
2022/06/20 03:25:43;;;;;;;5.40;1.83;;;;;;;13.14;100.00;101483.41;5033171;28;20076;-70
2022/06/20 03:28:21;;;;;;;3.92;1.80;;;;;;;13.13;100.00;101476.31;5033940;28;20493;-70
2022/06/20 03:30:47;;;;;;;6.13;1.60;;;;;;;13.16;100.00;101476.38;5033482;28;20052;-71
2022/06/20 03:33:16;;;;;;;11.55;2.45;;;;;;;13.14;100.00;101478.13;5032853;28;20540;-71
2022/06/20 03:35:47;;;;;;;6.75;2.33;;;;;;;13.12;100.00;101469.25;5034229;28;20025;-71
2022/06/20 03:38:14;;;;;;;3.92;1.67;;;;;;;13.13;100.00;101465.75;5031360;28;20360;-71
2022/06/20 03:40:40;;;;;;;4.53;1.85;;;;;;;13.15;100.00;101468.41;5032131;28;20033;-70
2022/06/20 03:43:09;;;;;;;7.05;1.80;;;;;;;13.13;100.00;101467.50;5034981;28;20068;-70
2022/06/20 03:45:40;;;;;;;7.88;1.42;;;;;;;13.15;100.00;101471.94;5033672;28;20033;-71
2022/06/20 03:48:16;;;;;;;11.57;2.40;;;;;;;13.16;100.00;101462.28;5032965;28;20021;-71
2022/06/20 03:51:04;;;;;;;5.25;2.03;;;;;;;13.23;100.00;101473.84;5033044;28;20029;-71
2022/06/20 03:53:43;;;;;;;5.53;1.42;;;;;;;13.28;100.00;101469.47;5027594;28;20054;-71
2022/06/20 03:56:31;;;;;;;7.30;2.22;;;;;;;13.35;100.00;101478.41;5033664;28;20025;-71
2022/06/20 03:59:22;;;;;;;10.95;2.17;;;;;;;13.36;100.00;101480.22;5034156;28;20029;-72
2022/06/20 04:01:54;;;;;;;11.23;2.08;;;;;;;13.39;100.00;101481.16;5031514;28;20064;-71
2022/06/20 04:04:27;;;;;;;10.10;2.25;;;;;;;13.45;100.00;101481.22;5031471;28;20080;-71
2022/06/20 04:07:03;;;;;;;8.43;1.90;;;;;;;13.45;100.00;101490.94;5027622;28;20461;-71
2022/06/20 04:12:36;;;;;;;6.40;1.70;;;;;;;13.48;100.00;101493.63;5032814;28;20191;-71
2022/06/20 04:15:18;;;;;;;16.05;2.40;;;;;;;13.48;100.00;101494.53;5030825;28;20033;-71
2022/06/20 04:20:55;;;;;;;13.00;2.28;;;;;;;13.61;100.00;101492.94;5031345;28;20041;-71
2022/06/20 04:23:52;;;;;;;7.38;2.00;;;;;;;13.68;100.00;101487.75;5031744;28;20037;-72
2022/06/20 04:26:29;;;;;;;15.52;2.10;;;;;;;13.72;100.00;101494.84;5029465;28;20037;-72
2022/06/20 04:29:16;;;;;;;8.98;2.03;;;;;;;13.74;100.00;101494.00;5031583;28;20406;-71
2022/06/20 04:31:52;;;;;;;6.78;2.10;;;;;;;13.73;100.00;101501.94;5030656;28;20022;-72
2022/06/20 04:34:34;;;;;;;10.38;2.33;;;;;;;13.80;100.00;101503.78;5032617;28;20071;-72
2022/06/20 04:37:22;;;;;;;10.98;1.85;;;;;;;13.78;100.00;101509.06;5032101;28;20393;-72
2022/06/20 04:40:29;;;;;;;10.32;2.33;;;;;;;13.81;100.00;101508.22;5033028;28;20030;-72
2022/06/20 04:43:10;;;;;;;13.05;3.25;;;;;;;13.89;100.00;101508.31;5025881;28;20543;-72
2022/06/20 04:45:56;;;;;;;7.28;2.35;;;;;;;13.97;100.00;101515.50;5030757;28;20056;-72
2022/06/20 04:48:23;;;;;;;14.52;2.28;;;;;;;14.04;100.00;101523.50;5033633;28;20496;-72
2022/06/20 04:50:51;;;;;;;11.30;2.40;;;;;;;14.00;100.00;101523.47;5033826;28;20037;-72
2022/06/20 04:53:24;;;;;;;9.57;2.83;;;;;;;13.95;100.00;101508.41;5033969;28;20073;-72
2022/06/20 04:55:53;;;;;;;14.48;2.45;;;;;;;14.01;100.00;101508.47;5033167;28;20025;-72
2022/06/20 04:58:27;;;;;;;10.32;2.45;;;;;;;14.08;100.00;101505.03;5032959;28;20037;-72
2022/06/20 05:00:52;;;;;;;;;;;;;;;14.14;100.00;101510.41;5032258;28;20041;-71
2022/06/20 05:03:22;;;;;;;10.93;2.30;;;;;;;14.15;100.00;101506.88;5033256;28;19921;-70
2022/06/20 05:05:52;;;;;;;7.35;2.60;;;;;;;14.28;100.00;101512.34;5024897;28;20453;-71
2022/06/20 05:08:26;;;;;;;7.72;2.50;;;;;;;14.30;100.00;101516.78;5031570;28;20079;-71
2022/06/20 05:11:00;;;;;;;12.63;2.88;;;;;;;14.36;100.00;101515.94;5026364;28;20022;-72
2022/06/20 05:13:44;;;;;;;7.85;2.20;;;;;;;14.39;100.00;101515.09;5033169;28;20029;-72
2022/06/20 05:16:17;;;;;;;11.90;2.45;;;;;;;14.46;100.00;101522.22;5033484;28;20025;-70
2022/06/20 05:18:47;;;;;;;8.23;2.28;;;;;;;14.54;100.00;101519.69;5032859;28;20065;-72
2022/06/20 05:21:17;;;;;;;8.90;2.45;;;;;;;14.49;100.00;101512.56;5031472;28;20033;-71
2022/06/20 05:23:46;;;;;;;9.40;2.35;;;;;;;14.61;100.00;101524.16;5032719;28;20044;-72
2022/06/20 05:26:19;;;;;;;7.03;2.60;;;;;;;14.66;100.00;101512.81;5033299;28;20022;-72
2022/06/20 05:28:47;;;;;;;8.00;2.78;;;;;;;14.68;100.00;101520.78;5031431;28;20496;-72
2022/06/20 05:31:17;;;;;;;11.40;2.90;;;;;;;14.70;100.00;101521.66;5029669;28;20406;-72
2022/06/20 05:34:06;;;;;;;9.68;2.70;;;;;;;14.62;100.00;101528.59;5032690;28;20064;-72
2022/06/20 05:37:03;;;;;;;12.98;2.67;;;;;;;14.63;100.00;101536.59;5030720;28;20035;-72
2022/06/20 05:39:31;;;;;;;5.30;1.95;;;;;;;14.54;100.00;101535.56;5018038;28;20037;-69
2022/06/20 05:41:58;;;;;;;14.05;2.58;;;;;;;14.59;100.00;101539.16;5024943;28;20367;-71
2022/06/20 05:44:23;;;;;;;13.57;3.03;;;;;;;14.66;100.00;101535.75;5031270;28;20034;-73
2022/06/20 05:46:56;;;;;;;8.40;2.72;;;;;;;14.74;100.00;101534.06;5032387;28;20025;-72
2022/06/20 05:49:30;;;;;;;10.38;2.47;;;;;;;14.80;100.00;101535.91;5028031;28;20029;-72
2022/06/20 05:51:58;;;;;;;;;;;;;;;14.91;100.00;101533.38;5028062;28;20358;-72
2022/06/20 05:54:27;;;;;;;14.38;3.00;;;;;;;15.04;100.00;101537.88;5031452;28;19920;-71
2022/06/20 05:57:06;;;;;;;12.63;2.85;;;;;;;15.10;100.00;101543.25;5023575;28;20030;-71
2022/06/20 05:59:46;;;;;;;14.20;3.00;;;;;;;15.22;100.00;101560.13;5025334;28;20029;-71
2022/06/20 06:02:22;;;;;;;11.82;2.75;;;;;;;15.24;100.00;101555.75;5026493;28;20036;-71
2022/06/20 06:04:58;;;;;;;14.82;2.67;;;;;;;15.16;100.00;101556.53;5024462;28;20030;-71
2022/06/20 06:07:33;;;;;;;10.23;3.10;;;;;;;15.06;100.00;101557.34;5024454;28;20026;-72
2022/06/20 06:10:06;;;;;;;15.05;3.08;;;;;;;15.08;100.00;101555.59;5025464;28;20038;-72
2022/06/20 06:12:42;;;;;;;12.07;2.83;;;;;;;15.06;100.00;101565.31;5025498;28;20022;-72
2022/06/20 06:15:34;;;;;;;11.10;2.90;;;;;;;15.08;100.00;101571.50;5024825;28;20377;-72
2022/06/20 06:18:10;;;;;;;7.90;2.60;;;;;;;15.15;100.00;101581.31;5031472;28;20044;-71
2022/06/20 06:20:37;;;;;;;8.00;2.70;;;;;;;15.24;100.00;101583.13;5030162;28;20017;-71
2022/06/20 06:23:06;;;;;;;12.30;3.08;;;;;;;15.33;100.00;101590.31;5031116;28;20103;-71
2022/06/20 06:25:35;;;;;;;13.45;3.35;;;;;;;15.43;100.00;101586.84;5028080;28;20034;-71
2022/06/20 06:28:04;;;;;;;15.52;3.20;;;;;;;15.42;100.00;101590.34;5023709;28;20059;-72
2022/06/20 06:30:37;;;;;;;13.70;2.70;;;;;;;15.55;100.00;101595.78;5018685;28;20160;-73
2022/06/20 06:33:24;;;;;;;9.40;2.72;;;;;;;15.61;100.00;101593.16;5026295;28;20400;-72
2022/06/20 06:35:57;;;;;;;13.07;2.15;;;;;;;15.62;100.00;101595.84;5024945;28;20033;-72
2022/06/20 06:38:38;;;;;;;11.45;2.63;;;;;;;15.56;100.00;101594.88;5029926;28;20052;-72
2022/06/20 06:41:10;;;;;;;8.05;2.60;;;;;;;15.55;100.00;101596.66;5028459;28;20036;-72
2022/06/20 06:43:43;;;;;;;12.07;3.00;;;;;;;15.56;100.00;101578.97;5030178;28;20465;-72
2022/06/20 06:46:32;;;;;;;11.43;2.83;;;;;;;15.62;100.00;101587.00;5030149;28;20504;-71
2022/06/20 06:49:07;;;;;;;6.18;2.40;;;;;;;15.80;100.00;101587.19;5024897;28;20052;-73
2022/06/20 06:51:46;;;;;;;11.10;2.50;;;;;;;16.07;100.00;101597.94;5030042;28;20550;-72
2022/06/20 06:54:19;;;;;;;8.52;2.20;;;;;;;16.29;100.00;101599.84;5029769;28;20025;-72
2022/06/20 06:56:54;;;;;;;7.80;2.85;;;;;;;16.47;100.00;101600.81;5031601;28;20033;-73
2022/06/20 06:59:29;;;;;;;6.85;2.05;;;;;;;16.68;100.00;101607.97;5030560;28;20025;-72
2022/06/20 07:01:59;;;;;;;7.97;2.13;;;;;;;16.73;100.00;101595.59;5032220;28;20115;-72
2022/06/20 07:05:00;;;;;;;10.32;2.58;;;;;;;16.83;100.00;101597.41;5028844;28;20025;-72
2022/06/20 07:07:33;;;;;;;11.60;2.47;;;;;;;16.85;100.00;101606.25;5025978;28;20536;-71
2022/06/20 07:09:59;;;;;;;;;;;;;;;16.86;100.00;101605.38;5034839;28;20126;-72
2022/06/20 07:12:44;;;;;;;9.65;2.50;;;;;;;16.69;100.00;101609.75;5035626;28;20364;-72
2022/06/20 07:15:18;;;;;;;11.95;3.42;;;;;;;16.60;100.00;101615.91;5034910;28;20029;-73
2022/06/20 07:18:15;;;;;;;11.93;2.45;;;;;;;16.32;100.00;101604.28;5034383;28;20591;-71
2022/06/20 07:20:42;;;;;;;9.50;2.58;;;;;;;16.32;100.00;101609.59;5034773;28;20025;-71
2022/06/20 07:23:16;;;;;;;7.60;2.25;;;;;;;16.22;100.00;101613.06;5033922;28;20025;-72
2022/06/20 07:25:49;;;;;;;12.27;2.58;;;;;;;16.09;100.00;101612.09;5031712;28;20025;-71
2022/06/20 07:28:38;;;;;;;8.32;2.58;;;;;;;16.03;100.00;101610.31;5032021;28;20385;-73
2022/06/20 07:31:14;;;;;;;7.78;2.33;;;;;;;16.21;100.00;101606.88;5033905;28;20354;-72
2022/06/20 07:33:54;;;;;;;11.20;2.50;;;;;;;16.39;100.00;101616.72;5035548;28;20053;-72
2022/06/20 07:36:25;;;;;;;10.57;2.67;;;;;;;16.51;100.00;101614.09;5035767;28;20025;-71
2022/06/20 07:39:06;;;;;;;8.27;2.40;;;;;;;16.62;100.00;101616.81;5031966;28;20029;-72
2022/06/20 07:41:40;;;;;;;11.60;3.33;;;;;;;16.76;100.00;101608.00;5034575;28;20026;-72
2022/06/20 07:44:13;;;;;;;11.50;2.58;;;;;;;16.94;100.00;101617.81;5033158;28;20021;-71
2022/06/20 07:46:49;;;;;;;11.02;3.00;;;;;;;17.14;100.00;101618.75;5025275;28;20025;-71
2022/06/20 07:49:22;;;;;;;11.88;2.15;;;;;;;17.24;100.00;101622.34;5031079;28;20079;-72
2022/06/20 07:51:51;;;;;;;8.53;2.00;;;;;;;17.28;99.61;101618.78;5035212;28;20404;-72
2022/06/20 07:54:27;;;;;;;9.82;2.40;;;;;;;17.47;100.00;101622.34;5035290;28;20075;-72
2022/06/20 07:57:04;;;;;;;9.85;2.25;;;;;;;17.56;100.00;101623.25;5030172;28;20041;-72
2022/06/20 07:59:35;;;;;;;9.80;2.60;;;;;;;17.65;100.00;101624.13;5032257;28;20079;-72
2022/06/20 08:02:28;;;;;;;8.75;2.38;;;;;;;17.86;96.85;101628.56;5033310;28;20041;-72
2022/06/20 08:04:57;;;;;;;6.90;2.40;;;;;;;17.93;96.65;101628.56;5035221;28;20043;-71
2022/06/20 08:07:38;;;;;;;9.05;2.35;;;;;;;17.92;94.61;101624.13;5034097;28;20386;-72
2022/06/20 08:10:25;;;;;;;7.80;2.75;;;;;;;17.86;95.11;101622.31;5023629;28;20025;-72
2022/06/20 08:13:12;;;;;;;6.80;2.15;;;;;;;17.76;94.52;101618.78;5035096;28;20024;-72
2022/06/20 08:15:44;;;;;;;5.20;1.98;;;;;;;17.80;92.66;101625.88;5033692;28;20041;-72
2022/06/20 08:18:09;;;;;;;11.30;2.63;;;;;;;17.90;92.15;101625.88;5034656;28;20025;-72
2022/06/20 08:20:40;;;;;;;9.90;2.05;;;;;;;17.98;90.81;101621.47;5034224;28;20032;-72
2022/06/20 08:23:14;;;;;;;7.68;1.70;;;;;;;18.08;91.12;101617.00;5033648;28;20116;-72
2022/06/20 08:25:46;;;;;;;6.40;2.08;;;;;;;18.07;83.88;101610.78;5034754;28;20076;-72
2022/06/20 08:28:19;;;;;;;8.30;1.83;;;;;;;18.05;87.63;101625.00;5033456;28;20189;-72
2022/06/20 08:31:01;;;;;;;7.55;1.95;;;;;;;18.12;85.06;101627.66;5031875;28;20036;-72
2022/06/20 08:33:41;;;;;;;5.45;1.40;;;;;;;18.24;86.64;101629.38;5034529;28;20024;-72
2022/06/20 08:36:10;;;;;;;8.50;1.88;;;;;;;18.28;85.64;101627.59;5034856;28;20029;-72
2022/06/20 08:38:58;;;;;;;6.75;2.35;;;;;;;18.34;86.38;101640.94;5033973;28;20040;-72
2022/06/20 08:41:30;;;;;;;9.85;1.92;;;;;;;18.52;86.58;101638.19;5034549;28;20036;-72
2022/06/20 08:44:32;;;;;;;7.57;1.52;;;;;;;18.57;88.11;101639.94;5033115;28;20049;-71
2022/06/20 08:47:16;;;;;;;8.55;1.85;;;;;;;18.57;86.64;101650.59;5032654;28;20036;-72
2022/06/20 08:49:59;;;;;;;9.05;2.22;;;;;;;18.54;85.08;101647.06;5034475;28;20366;-73
2022/06/20 08:52:57;;;;;;;11.00;2.13;;;;;;;18.63;86.46;101653.25;5034293;28;20056;-73
2022/06/20 08:55:23;;;;;;;6.70;1.67;;;;;;;18.63;82.77;101646.13;5032916;28;20043;-73
2022/06/20 08:58:02;;;;;;;10.38;1.75;;;;;;;18.57;81.84;101651.50;5032353;28;20021;-72
2022/06/20 09:01:01;;;;;;;10.02;2.03;;;;;;;18.67;82.23;101663.00;5034092;28;20468;-72
2022/06/20 09:03:32;;;;;;;8.38;2.28;;;;;;;18.83;83.24;101663.84;5033222;28;20102;-72
2022/06/20 09:06:36;;;;;;;9.75;2.03;;;;;;;18.92;81.53;101669.13;5032583;28;20124;-72
2022/06/20 09:09:13;;;;;;;8.57;2.17;;;;;;;19.04;82.60;101673.53;5033982;28;20092;-72
2022/06/20 09:12:20;;;;;;;8.50;2.20;;;;;;;19.05;78.53;101669.97;5031608;28;20370;-72
2022/06/20 09:14:48;;;;;;;9.40;2.35;;;;;;;19.04;78.25;101678.88;5033649;28;20029;-72
2022/06/20 09:18:10;;;;;;;8.80;2.60;;;;;;;19.09;76.99;101686.88;5031828;28;20060;-72
2022/06/20 09:20:41;;;;;;;7.05;1.90;;;;;;;19.12;76.41;101682.38;5006012;28;20033;-72
2022/06/20 09:23:25;;;;;;;9.48;2.10;;;;;;;19.15;77.43;101687.72;5008259;28;20045;-71
2022/06/20 09:26:02;;;;;;;7.72;1.88;;;;;;;19.10;77.96;101689.53;5019070;28;20053;-72
2022/06/20 09:28:46;;;;;;;7.22;2.20;;;;;;;19.25;78.70;101683.22;5033345;28;20049;-72
2022/06/20 09:31:49;;;;;;;9.27;2.50;;;;;;;19.35;77.05;101684.03;5028709;28;20079;-72
2022/06/20 09:34:28;;;;;;;11.60;2.33;;;;;;;19.33;74.71;101689.38;5024529;28;20940;-71
2022/06/20 09:37:19;;;;;;;9.90;2.15;;;;;;;19.27;74.88;101696.53;5029191;28;20527;-72
2022/06/20 09:40:03;;;;;;;11.05;3.03;;;;;;;19.32;74.10;101697.41;5029330;28;20037;-71
2022/06/20 09:42:44;;;;;;;9.85;2.05;;;;;;;19.32;76.05;101705.41;5031556;28;20033;-73
2022/06/20 09:45:49;;;;;;;10.65;2.28;;;;;;;19.44;75.99;101700.00;5033403;28;20029;-71
2022/06/20 09:48:26;;;;;;;11.05;2.45;;;;;;;19.41;73.39;101712.47;5031227;28;20026;-71
2022/06/20 09:51:13;;;;;;;10.82;2.25;;;;;;;19.19;71.16;101707.25;5032564;28;20171;-71
2022/06/20 09:53:59;;;;;;;9.55;2.42;;;;;;;19.54;77.40;101715.03;5037373;28;20045;-71
2022/06/20 09:56:52;;;;;;;13.57;2.90;;;;;;;19.52;73.99;101710.59;5030069;28;20049;-72
2022/06/20 09:59:43;;;;;;;9.88;2.63;;;;;;;19.53;80.27;101715.94;5006543;28;20042;-72
2022/06/20 10:02:18;;;;;;;13.80;2.65;;;;;;;19.50;73.60;101707.94;5030003;28;20025;-72
2022/06/20 10:05:32;;;;;;;10.35;2.58;;;;;;;19.82;76.91;101709.53;5029296;28;20022;-72
2022/06/20 10:08:08;;;;;;;14.13;2.42;;;;;;;20.12;76.04;101719.97;5031561;28;20041;-72
2022/06/20 10:10:53;;;;;;;6.82;2.13;;;;;;;19.90;71.14;101719.25;5032201;28;20075;-72
2022/06/20 10:13:30;;;;;;;7.85;2.10;;;;;;;19.74;74.63;101729.13;5019839;28;20441;-72
2022/06/20 10:16:05;;;;;;;8.52;2.53;;;;;;;19.57;70.70;101721.25;5032274;28;20033;-72
2022/06/20 10:18:42;;;;;;;10.70;2.17;;;;;;;19.53;69.36;101723.97;5030421;28;20465;-72
2022/06/20 10:21:29;;;;;;;11.52;2.13;;;;;;;19.67;71.32;101731.88;5032241;28;20057;-72
2022/06/20 10:24:06;;;;;;;8.55;1.77;;;;;;;19.71;73.98;101730.94;5031614;28;20110;-72
2022/06/20 10:26:46;;;;;;;10.98;2.13;;;;;;;19.55;69.97;101729.28;5030420;28;20029;-72
2022/06/20 10:29:22;;;;;;;11.38;2.40;;;;;;;19.38;70.04;101726.72;5032544;28;20365;-73
2022/06/20 10:31:51;;;;;;;8.82;2.55;;;;;;;19.58;76.09;101734.59;5033174;28;20064;-72
2022/06/20 10:34:34;;;;;;;10.63;2.30;;;;;;;19.68;71.84;101735.41;5021259;28;20028;-73
2022/06/20 10:37:18;;;;;;;9.75;2.17;;;;;;;19.81;71.23;101747.81;5026458;28;20065;-71
2022/06/20 10:39:57;;;;;;;18.00;2.20;;;;;;;19.77;72.59;101743.38;5024601;28;20079;-73
2022/06/20 10:42:30;;;;;;;11.13;2.50;;;;;;;19.28;70.14;101741.88;5018763;28;20141;-72
2022/06/20 10:45:23;;;;;;;9.68;2.15;;;;;;;19.45;69.31;101743.56;5034458;28;20466;-70
2022/06/20 10:47:49;;;;;;;11.07;1.85;;;;;;;19.81;67.52;101750.50;5035110;28;20038;-70
2022/06/20 10:50:32;;;;;;;9.07;1.60;;;;;;;20.08;66.06;101748.50;5035050;28;20151;-71
2022/06/20 10:53:13;;;;;;;8.00;1.88;;;;;;;20.43;69.98;101747.28;5036015;28;20290;-70
2022/06/20 10:55:59;;;;;;;7.63;1.75;;;;;;;20.28;64.38;101742.97;5033622;28;20403;-72
2022/06/20 10:58:36;;;;;;;7.70;1.60;;;;;;;20.38;67.12;101754.47;5035181;28;20053;-72
2022/06/20 11:01:14;;;;;;;9.43;1.92;;;;;;;20.48;67.43;101756.16;5034462;28;20036;-71
2022/06/20 11:04:25;;;;;;;6.57;2.10;;;;;;;20.80;64.82;101749.59;5033452;28;20033;-72
2022/06/20 11:07:09;;;;;;;10.38;2.20;;;;;;;21.03;64.23;101751.13;5021622;28;20052;-71
2022/06/20 11:09:35;;;;;;;;;;;;;;;21.13;61.09;101755.44;5035046;28;20118;-72
2022/06/20 11:12:24;;;;;;;6.35;1.88;;;;;;;21.34;64.36;101761.44;5033245;28;19913;-72
2022/06/20 11:15:07;;;;;;;6.30;1.45;;;;;;;21.39;60.33;101764.91;5023727;28;20087;-72
2022/06/20 11:18:04;;;;;;;7.47;1.73;;;;;;;21.34;61.93;101758.75;5036141;28;20528;-72
2022/06/20 11:21:13;;;;;;;7.90;1.83;;;;;;;20.96;62.09;101774.38;5034916;28;20116;-72
2022/06/20 11:23:54;;;;;;;6.90;2.58;;;;;;;20.86;64.29;101778.06;5027362;28;20122;-72
2022/06/20 11:26:43;;;;;;;8.38;2.38;;;;;;;20.74;64.28;101772.84;5024243;28;20025;-72
2022/06/20 11:29:22;;;;;;;9.10;2.22;;;;;;;20.38;67.11;101775.84;5033206;28;20026;-72
2022/06/20 11:31:54;;;;;;;11.85;2.70;;;;;;;20.04;67.40;101776.16;5033219;28;20033;-73
2022/06/20 11:34:41;;;;;;;9.05;1.70;;;;;;;19.60;68.01;101771.97;5026198;28;20063;-72
2022/06/20 11:37:26;;;;;;;6.50;2.13;;;;;;;19.74;69.88;101779.88;5035578;28;20041;-72
2022/06/20 11:40:25;;;;;;;7.70;1.73;;;;;;;19.97;69.51;101782.44;5034318;28;20151;-72
2022/06/20 11:43:15;;;;;;;8.95;2.22;;;;;;;20.13;69.87;101792.13;5025221;28;20033;-72
2022/06/20 11:46:05;;;;;;;9.95;2.13;;;;;;;20.18;71.45;101789.38;5023689;28;20045;-72
2022/06/20 11:49:01;;;;;;;13.13;2.85;;;;;;;20.24;68.90;101799.13;5035340;28;20029;-71
2022/06/20 11:51:49;;;;;;;11.55;1.95;;;;;;;20.17;77.98;101799.19;5034820;28;20021;-72
2022/06/20 11:54:36;;;;;;;9.73;3.00;;;;;;;20.27;73.13;101799.13;5033153;28;20068;-72
2022/06/20 11:57:28;;;;;;;11.80;2.50;;;;;;;20.05;70.12;101805.53;5029997;28;20053;-72
2022/06/20 12:00:18;;;;;;;16.10;2.60;;;;;;;19.75;70.30;101801.25;5035216;28;20029;-72
2022/06/20 12:03:04;;;;;;;13.43;2.95;;;;;;;19.64;73.92;101800.41;5033867;28;20390;-72
2022/06/20 12:05:44;;;;;;;11.90;2.20;;;;;;;19.58;75.76;101808.47;5033887;28;20029;-71
2022/06/20 12:08:40;;;;;;;13.35;2.95;;;;;;;19.52;73.68;101806.69;5031972;28;20374;-73
2022/06/20 12:11:16;;;;;;;13.93;2.80;;;;;;;19.63;75.92;101812.88;5031558;28;20029;-74
2022/06/20 12:14:01;;;;;;;17.02;3.13;;;;;;;19.67;77.73;101814.66;5035008;28;20040;-73